Latest Weather Observations for Perth Airport

IDW60901

Issued at 8:41 am WST Sunday 1 March 2015 (issued every 10 minutes, with the page automatically refreshed every 10 minutes)

About weather observations | Map of Perth area stations | Latest observations for Perth area | Other Formats
Station Details ID: 009021 Name: PERTH AIRPORT Lat: -31.93 Lon: 115.98 Height: 15.4 m
Data from the previous 72 hours. | See also: Recent months at Perth Airport
Date/Time
WST
Tmp

°C
App
Tmp
°C
Dew
Point
°C
Rel
Hum
%
Delta-T

°C
Wind Press
QNH
hPa
Press
MSL
hPa
Rain
since
9 am
mm
Dir
 
Spd
km/h
Gust
km/h
Spd
kts
Gust
kts
01/08:30am 21.6 18.4 11.3 52 5.7 ESE 19 24 10 13 1011.3 - 0.0
01/08:00am 20.6 17.8 11.4 55 5.1 ESE 17 32 9 17 1011.4 - 0.0
01/07:30am 19.2 16.3 10.9 58 4.5 ESE 17 24 9 13 1011.4 - 0.0
01/07:00am 18.4 15.9 11.2 63 3.9 ESE 15 22 8 12 1011.3 - 0.0
01/06:30am 17.5 15.0 11.0 65 3.5 E 15 26 8 14 1010.9 - 0.0
01/05:30am 17.7 15.1 10.8 64 3.7 ESE 15 30 8 16 1010.8 - 0.0
01/05:00am 18.0 15.4 10.8 63 3.9 ESE 15 24 8 13 1010.7 - 0.0
01/04:30am 17.9 15.0 10.9 63 3.8 E 17 28 9 15 1010.6 - 0.0
01/04:00am 17.7 14.8 11.0 65 3.6 E 17 26 9 14 1011.0 - 0.0
01/03:30am 18.0 15.5 11.0 63 3.8 E 15 26 8 14 1011.2 - 0.0
01/03:00am 18.2 15.7 11.0 63 3.9 ESE 15 28 8 15 1011.1 1011.0 0.0
01/02:00am 19.0 17.1 10.5 58 4.6 ESE 11 20 6 11 1011.4 - 0.0
01/01:30am 19.4 16.7 10.5 56 4.8 SSE 15 30 8 16 1011.3 - 0.0
01/12:34am 20.7 15.5 10.2 51 5.7 E 28 48 15 26 1011.3 - 0.0
01/12:30am 20.7 15.9 10.2 51 5.7 E 26 39 14 21 1011.2 - 0.0
01/12:02am 21.5 14.5 10.1 48 6.2 E 37 56 20 30 1011.2 - 0.0
01/12:00am 21.6 14.2 10.0 47 6.3 E 39 56 21 30 1011.3 1011.2 0.0
 
Date/Time
WST
Tmp

°C
App
Tmp
°C
Dew
Point
°C
Rel
Hum
%
Delta-T

°C
Wind Press
QNH
hPa
Press
MSL
hPa
Rain
since
9 am
mm
Dir
 
Spd
km/h
Gust
km/h
Spd
kts
Gust
kts
28/11:34pm 22.3 16.7 10.0 45 6.7 ESE 30 50 16 27 1011.4 - 0.0
28/11:30pm 22.5 16.8 9.8 44 6.9 ESE 30 37 16 20 1011.4 - 0.0
28/11:00pm 23.4 17.3 9.6 41 7.5 E 32 41 17 22 1011.6 - 0.0
28/10:30pm 21.5 19.2 11.9 54 5.4 SE 15 26 8 14 1012.0 - 0.0
28/10:00pm 21.4 19.4 13.8 62 4.4 S 17 20 9 11 1012.2 - 0.0
28/09:30pm 21.9 19.5 13.8 60 4.7 S 19 22 10 12 1012.4 - 0.0
28/09:00pm 22.2 19.9 14.2 60 4.7 S 19 22 10 12 1012.5 1012.4 0.0
28/08:30pm 22.7 20.9 14.4 59 4.9 SSW 17 20 9 11 1012.5 - 0.0
28/08:00pm 23.0 21.2 14.5 58 5.0 SSW 17 26 9 14 1012.2 - 0.0
28/07:30pm 23.5 21.1 14.4 56 5.4 SW 20 26 11 14 1012.0 - 0.0
28/07:00pm 24.3 22.5 14.5 54 5.8 WSW 17 24 9 13 1011.7 - 0.0
28/06:30pm 25.9 23.3 13.9 47 7.1 WSW 20 28 11 15 1011.4 - 0.0
28/05:30pm 30.2 26.8 5.8 21 12.9 SW 13 20 7 11 1011.3 - 0.0
28/05:00pm 30.4 25.8 5.5 20 13.1 SE 19 28 10 15 1011.4 - 0.0
28/04:30pm 30.4 26.1 5.2 20 13.2 SE 17 28 9 15 1011.7 - 0.0
28/04:00pm 30.6 26.7 5.3 20 13.3 ENE 15 26 8 14 1012.1 - 0.0
28/03:30pm 30.6 26.6 4.9 19 13.4 E 15 28 8 15 1012.4 - 0.0
28/03:00pm 29.8 25.3 6.3 22 12.5 E 19 30 10 16 1012.8 1012.7 0.0
28/02:30pm 30.0 25.2 7.2 24 12.3 ESE 22 33 12 18 1013.2 - 0.0
28/02:00pm 29.0 24.7 6.9 24 11.8 ESE 19 32 10 17 1013.6 - 0.0
28/01:30pm 28.8 24.5 8.0 27 11.3 E 20 30 11 16 1014.1 - 0.0
28/01:00pm 27.8 24.1 8.0 28 10.7 SE 17 26 9 14 1014.6 - 0.0
28/12:30pm 27.7 23.9 8.9 30 10.3 E 19 32 10 17 1015.1 - 0.0
28/12:00pm 26.8 23.0 9.1 32 9.7 E 19 28 10 15 1015.3 1015.2 0.0
28/11:30am 27.0 23.2 9.7 33 9.6 SE 20 28 11 15 1015.8 - 0.0
28/11:00am 25.7 21.2 10.2 37 8.6 E 24 33 13 18 1016.1 - 0.0
28/10:30am 25.5 20.9 10.9 40 8.2 E 26 37 14 20 1016.3 - 0.0
28/10:00am 24.3 20.9 11.1 43 7.4 SE 20 30 11 16 1016.5 - 0.0
28/09:30am 23.6 20.2 11.3 46 6.9 E 20 32 11 17 1016.7 - 0.0
28/09:00am 22.6 19.5 11.5 49 6.2 ESE 19 26 10 14 1016.6 1016.5 0.0
28/08:30am 21.7 18.6 12.1 54 5.4 ESE 20 33 11 18 1016.6 - 0.0
28/08:00am 20.7 17.6 12.1 58 4.8 SE 20 32 11 17 1016.6 - 0.0
28/07:30am 20.0 16.9 12.3 61 4.3 SE 20 30 11 16 1016.3 - 0.0
28/07:00am 19.2 15.2 11.8 62 4.1 ESE 24 32 13 17 1015.9 - 0.0
28/06:30am 18.6 13.9 11.9 65 3.7 ESE 28 39 15 21 1015.4 - 0.0
28/06:00am 18.3 14.5 12.4 68 3.3 ESE 24 33 13 18 1015.0 1014.9 0.0
28/05:30am 18.6 15.6 12.5 67 3.4 ESE 20 32 11 17 1014.8 - 0.0
28/05:00am 18.9 15.9 12.7 67 3.5 SE 20 33 11 18 1014.5 - 0.0
28/04:30am 19.0 16.0 12.6 66 3.6 SE 20 32 11 17 1014.2 - 0.0
28/04:00am 19.0 16.1 13.0 68 3.4 SE 20 26 11 14 1014.1 - 0.0
28/03:30am 19.2 17.2 12.8 66 3.6 SSE 15 26 8 14 1013.9 - 0.0
28/03:00am 19.4 16.7 12.8 65 3.7 SSE 19 33 10 18 1013.5 - 0.0
28/02:30am 19.8 17.4 12.5 62 4.1 SSE 17 28 9 15 1013.4 - 0.0
28/02:00am 19.8 16.5 12.7 63 4.0 SSE 22 28 12 15 1013.3 - 0.0
28/01:30am 20.0 17.0 12.7 63 4.1 S 20 26 11 14 1013.3 - 0.0
28/01:00am 19.4 17.1 14.0 71 3.1 S 19 26 10 14 1013.3 - 0.0
28/12:30am 19.4 17.3 15.1 76 2.5 S 20 26 11 14 1013.1 - 0.0
28/12:00am 19.5 17.8 15.8 79 2.2 S 19 24 10 13 1013.0 1012.9 0.0
 
Date/Time
WST
Tmp

°C
App
Tmp
°C
Dew
Point
°C
Rel
Hum
%
Delta-T

°C
Wind Press
QNH
hPa
Press
MSL
hPa
Rain
since
9 am
mm
Dir
 
Spd
km/h
Gust
km/h
Spd
kts
Gust
kts
27/11:30pm 19.9 18.6 15.9 78 2.4 S 17 22 9 12 1012.9 - 0.0
27/11:00pm 20.2 18.5 15.8 76 2.6 S 19 22 10 12 1012.7 - 0.0
27/10:30pm 20.7 19.1 15.9 74 2.9 S 19 26 10 14 1012.5 - 0.0
27/10:00pm 21.1 20.6 15.9 72 3.1 SSW 13 17 7 9 1012.6 - 0.0
27/09:30pm 21.1 19.8 15.9 72 3.1 SSW 17 20 9 11 1012.6 - 0.0
27/09:00pm 21.3 19.0 15.8 71 3.3 SSW 22 30 12 16 1012.2 1012.1 0.0
27/08:30pm 21.5 18.4 15.5 68 3.6 SSW 26 33 14 18 1011.7 - 0.0
27/08:00pm 21.7 17.8 15.5 68 3.7 SSW 30 39 16 21 1011.3 - 0.0
27/07:30pm 22.1 18.3 14.8 63 4.3 SSW 28 35 15 19 1010.9 - 0.0
27/07:00pm 22.4 17.7 14.4 60 4.7 SW 32 39 17 21 1010.7 - 0.0
27/06:30pm 23.2 18.4 14.0 56 5.4 SW 32 37 17 20 1010.7 - 0.0
27/06:00pm 24.0 19.1 14.4 55 5.7 SW 33 41 18 22 1010.4 1010.3 0.0
27/05:30pm 24.4 20.1 14.3 53 6.0 SW 30 39 16 21 1010.2 - 0.0
27/05:00pm 25.2 20.3 13.8 49 6.7 SW 32 44 17 24 1010.1 - 0.0
27/04:30pm 25.4 20.4 13.9 49 6.8 SW 33 43 18 23 1009.8 - 0.0
27/04:00pm 25.5 20.9 14.6 51 6.5 WSW 32 39 17 21 1009.7 - 0.0
27/03:30pm 26.1 21.6 14.8 49 6.8 SW 32 39 17 21 1009.6 - 0.0
27/03:00pm 25.8 21.5 14.4 49 6.8 WSW 30 41 16 22 1009.6 1009.5 0.0
27/02:30pm 25.8 21.1 14.2 48 6.9 WSW 32 44 17 24 1009.6 - 0.0
27/02:00pm 26.0 21.0 13.4 45 7.4 WSW 32 43 17 23 1009.5 - 0.0
27/01:30pm 26.2 20.9 12.6 43 7.9 WSW 32 44 17 24 1009.5 - 0.0
27/01:00pm 26.1 21.1 13.5 45 7.4 SW 32 39 17 21 1009.5 - 0.0
27/12:30pm 25.9 21.2 14.3 48 6.9 SW 32 41 17 22 1009.6 - 0.0
27/12:00pm 25.7 21.4 14.3 49 6.8 WSW 30 41 16 22 1009.5 1009.4 0.0
27/11:30am 25.7 21.7 15.1 52 6.4 SW 30 39 16 21 1009.6 - 0.0
27/11:00am 25.6 22.1 15.4 53 6.2 WSW 28 37 15 20 1009.6 - 0.0
27/10:30am 25.5 22.0 15.4 53 6.1 SW 28 43 15 23 1009.7 - 0.0
27/10:00am 24.6 20.9 16.1 59 5.2 SW 30 39 16 21 1009.7 - 0.0
27/09:30am 23.1 20.4 16.6 67 4.0 SW 26 33 14 18 1009.5 - 0.0
27/09:00am 23.5 21.2 16.7 65 4.2 SW 24 32 13 17 1009.2 1009.1 0.0
27/08:30am 22.9 20.6 17.6 72 3.3 SW 26 33 14 18 1008.9 - 0.0
27/08:00am 22.7 20.1 17.9 74 3.0 SW 28 37 15 20 1008.6 - 0.0
27/07:30am 22.0 20.4 18.3 79 2.3 SW 24 37 13 20 1008.2 - 0.0
27/07:00am 21.6 22.7 18.9 84 1.7 SSW 11 15 6 8 1008.0 - 0.0
27/06:30am 21.2 22.4 19.0 87 1.4 SSW 11 15 6 8 1007.6 - 0.0
27/06:00am 21.1 21.0 18.7 86 1.5 SW 17 19 9 10 1007.3 1007.2 0.0
27/05:30am 21.4 21.4 18.9 86 1.6 SW 17 22 9 12 1007.0 - 0.0
27/05:00am 21.5 21.6 19.1 86 1.5 SSW 17 20 9 11 1006.7 - 0.0
27/04:30am 21.5 21.0 19.1 86 1.5 WSW 20 28 11 15 1006.5 - 0.0
27/04:13am 21.3 21.9 19.4 89 1.2 WSW 15 20 8 11 1006.4 - 0.0
27/04:00am 21.2 21.1 19.6 90 1.0 SW 19 28 10 15 1006.3 - 0.0
27/03:54am 21.3 21.2 19.9 92 0.9 SW 20 28 11 15 1006.2 - 0.0
27/03:30am 21.7 21.7 19.7 88 1.3 WSW 19 26 10 14 1005.9 - 0.0
27/03:00am 22.2 22.3 19.9 87 1.5 WSW 19 26 10 14 1005.6 1005.5 0.0
27/02:30am 22.8 23.1 20.3 86 1.6 W 19 26 10 14 1005.6 - 0.0
27/02:00am 22.8 24.6 20.3 86 1.6 W 11 17 6 9 1005.6 - 0.0
27/01:30am 22.4 24.0 19.9 86 1.6 NW 11 15 6 8 1005.9 - 0.0
27/01:00am 21.9 23.4 19.7 87 1.4 NW 11 13 6 7 1006.0 - 0.0
27/12:47am 21.5 22.9 19.5 88 1.3 NW 11 15 6 8 1006.0 - 0.0
27/12:30am 21.2 22.6 19.5 90 1.1 NW 11 13 6 7 1006.1 - 0.0
27/12:00am 21.7 22.7 19.5 87 1.4 NW 13 15 7 8 1006.3 1006.2 0.0
 
Date/Time
WST
Tmp

°C
App
Tmp
°C
Dew
Point
°C
Rel
Hum
%
Delta-T

°C
Wind Press
QNH
hPa
Press
MSL
hPa
Rain
since
9 am
mm
Dir
 
Spd
km/h
Gust
km/h
Spd
kts
Gust
kts
26/11:30pm 21.8 23.1 19.4 86 1.5 NW 11 15 6 8 1006.3 - 0.0
26/11:00pm 22.3 23.5 19.8 86 1.6 WNW 13 17 7 9 1006.3 - 0.0
26/10:30pm 22.5 24.3 20.3 87 1.4 W 11 15 6 8 1006.2 - 0.0
26/10:00pm 23.1 24.6 20.5 85 1.7 WNW 13 17 7 9 1006.5 - 0.0
26/09:30pm 23.7 25.0 20.2 81 2.3 W 13 19 7 10 1006.6 - 0.0
26/09:00pm 23.9 25.5 20.7 82 2.1 W 13 19 7 10 1006.4 1006.3 0.0
26/08:30pm 24.0 25.9 21.3 85 1.8 W 13 17 7 9 1006.1 - 0.0
26/08:00pm 24.4 26.2 21.1 82 2.2 NW 13 17 7 9 1005.8 - 0.0
26/07:30pm 25.1 27.2 21.0 78 2.7 W 11 15 6 8 1005.4 - 0.0
26/07:00pm 25.9 27.7 21.1 75 3.2 WSW 13 17 7 9 1005.0 - 0.0
26/06:30pm 27.0 28.5 20.5 67 4.3 W 13 19 7 10 1004.8 - 0.0
26/06:00pm 27.5 29.1 20.7 66 4.5 WNW 13 19 7 10 1004.7 1004.6 0.0
26/05:30pm 27.5 28.8 20.9 67 4.4 W 15 19 8 10 1004.7 - 0.0
26/05:00pm 28.4 28.9 20.0 60 5.5 WNW 17 26 9 14 1004.8 - 0.0
26/04:30pm 29.0 28.6 19.0 54 6.5 W 19 26 10 14 1004.7 - 0.0
26/04:00pm 30.1 29.6 18.7 50 7.4 W 19 26 10 14 1004.6 - 0.0
26/03:30pm 30.8 30.5 18.2 47 8.1 WSW 17 26 9 14 1004.5 - 0.0
26/03:00pm 30.7 30.3 18.9 49 7.7 WNW 19 26 10 14 1004.5 1004.4 0.0
26/02:30pm 31.6 31.2 19.3 48 8.1 W 20 30 11 16 1004.7 - 0.0
26/02:00pm 31.9 31.8 19.6 48 8.1 W 19 28 10 15 1004.8 - 0.0
26/01:30pm 32.4 32.0 19.3 46 8.6 W 20 26 11 14 1004.9 - 0.0
26/01:00pm 32.8 31.6 19.3 45 8.9 W 24 30 13 16 1005.1 - 0.0
26/12:30pm 33.1 33.2 20.0 46 8.7 WNW 19 32 10 17 1005.3 - 0.0
26/12:00pm 33.9 33.9 19.0 41 9.8 W 17 26 9 14 1005.5 1005.4 0.0
26/11:30am 33.8 34.8 18.7 40 9.9 WSW 11 19 6 10 1005.8 - 0.0
26/11:00am 32.4 34.1 19.3 46 8.6 N 9 15 5 8 1006.2 - 0.0
26/10:30am 32.2 33.4 19.1 45 8.6 NNW 11 17 6 9 1006.5 - 0.0
26/10:00am 30.8 32.8 18.8 48 7.8 NW 6 9 3 5 1006.7 - 0.0
26/09:30am 30.1 31.4 19.2 52 7.1 N 11 17 6 9 1007.0 - 0.0
26/09:00am 29.1 31.2 19.3 55 6.4 NE 7 15 4 8 1007.2 1007.1 0.0

Latest Capital City Observations: Canberra | Sydney | Melbourne | Brisbane | Adelaide | Perth | Hobart | Darwin

Other Formats:

Comma delimited format used in spreadsheet applications
http://www.bom.gov.au/fwo/IDW60901/IDW60901.94610.axf

JavaScript Object Notation format (JSON) in row-major order
http://www.bom.gov.au/fwo/IDW60901/IDW60901.94610.json